createdAt,value
2022-11-05T00:01:18.352Z,7.13
2022-11-05T00:07:40.352Z,8.30
2022-11-05T00:14:00.731Z,7.38
2022-11-05T00:20:02.177Z,7.80
2022-11-05T00:26:06.680Z,7.30
2022-11-05T00:32:08.133Z,7.45
2022-11-05T00:38:09.583Z,7.40
2022-11-05T00:44:29.691Z,7.25
2022-11-05T00:50:31.197Z,8.13
2022-11-05T00:56:32.650Z,7.30
2022-11-05T01:02:34.343Z,7.38
2022-11-05T01:08:35.928Z,7.27
2022-11-05T01:14:37.440Z,7.10
2022-11-05T01:20:39.292Z,7.50
2022-11-05T01:26:40.740Z,7.78
2022-11-05T01:32:42.495Z,7.95
2022-11-05T01:38:44.273Z,9.17
2022-11-05T01:45:10.817Z,8.15
2022-11-05T01:51:14.104Z,8.37
2022-11-05T01:57:15.544Z,8.38
2022-11-05T02:03:18.889Z,7.55
2022-11-05T02:09:26.410Z,8.57
2022-11-05T02:15:35.677Z,8.02
2022-11-05T02:21:46.320Z,8.33
2022-11-05T02:28:13.560Z,8.23
2022-11-05T02:34:14.981Z,7.68
2022-11-05T02:40:22.323Z,8.27
2022-11-05T02:46:26.866Z,8.55
2022-11-05T02:52:32.668Z,9.20
2022-11-05T02:58:35.281Z,8.63
2022-11-05T03:04:36.762Z,7.85
2022-11-05T03:10:54.672Z,7.83
2022-11-05T03:17:19.526Z,7.80
2022-11-05T03:23:20.983Z,7.60
2022-11-05T03:29:25.074Z,7.65
2022-11-05T03:35:31.792Z,7.13
2022-11-05T03:41:34.306Z,7.10
2022-11-05T03:47:38.002Z,7.40
2022-11-05T03:53:51.806Z,7.03
2022-11-05T03:59:53.284Z,7.43
2022-11-05T04:06:14.470Z,6.30
2022-11-05T04:12:34.666Z,6.40
2022-11-05T04:18:39.180Z,6.30
2022-11-05T04:24:40.624Z,6.67
2022-11-05T04:30:44.200Z,6.22
2022-11-05T04:36:46.213Z,6.50
2022-11-05T04:42:47.710Z,6.70
2022-11-05T04:48:49.198Z,6.78
2022-11-05T04:54:50.730Z,7.07
2022-11-05T05:00:52.236Z,6.57
2022-11-05T05:06:53.800Z,6.30
2022-11-05T05:12:55.449Z,6.27
2022-11-05T05:18:56.922Z,6.82
2022-11-05T05:24:59.868Z,6.80
2022-11-05T05:31:01.810Z,6.20
2022-11-05T05:37:03.288Z,5.47
2022-11-05T05:43:04.738Z,5.93
2022-11-05T05:49:11.244Z,5.63
2022-11-05T05:55:13.896Z,6.10
2022-11-05T06:01:19.258Z,5.15
2022-11-05T06:07:21.290Z,5.53
2022-11-05T06:13:22.709Z,5.80
2022-11-05T06:19:24.197Z,5.50
2022-11-05T06:25:26.014Z,5.10
2022-11-05T06:31:27.530Z,5.30
2022-11-05T06:37:30.594Z,5.65
2022-11-05T06:43:32.039Z,5.97
2022-11-05T06:49:33.493Z,5.63
2022-11-05T06:55:34.946Z,5.30
2022-11-05T07:01:37.461Z,5.50
2022-11-05T07:07:39.814Z,5.90
2022-11-05T07:13:41.291Z,6.20
2022-11-05T07:19:42.720Z,6.50
2022-11-05T07:25:44.216Z,6.53
2022-11-05T07:31:46.942Z,7.07
2022-11-05T07:37:49.684Z,7.97
2022-11-05T07:43:51.118Z,8.40
2022-11-05T07:49:52.610Z,8.18
2022-11-05T07:55:54.177Z,8.00
2022-11-05T08:01:55.818Z,7.50
2022-11-05T08:07:57.788Z,8.23
2022-11-05T08:13:59.276Z,7.37
2022-11-05T08:20:00.709Z,7.60
2022-11-05T08:26:03.568Z,6.57
2022-11-05T08:32:05.110Z,6.63
2022-11-05T08:38:07.270Z,5.57
2022-11-05T08:44:08.782Z,5.90
2022-11-05T08:50:10.246Z,5.20
2022-11-05T08:56:11.761Z,4.90
2022-11-05T09:02:13.423Z,4.32
2022-11-05T09:08:16.418Z,4.43
2022-11-05T09:14:17.896Z,4.50
2022-11-05T09:20:19.478Z,3.88
2022-11-05T09:26:20.945Z,3.73
2022-11-05T09:32:23.171Z,3.75
2022-11-05T09:38:24.612Z,3.20
2022-11-05T09:44:32.039Z,2.53
2022-11-05T09:50:34.672Z,3.30
2022-11-05T09:56:38.706Z,2.90
2022-11-05T10:02:46.266Z,2.80
2022-11-05T10:08:51.542Z,4.03
2022-11-05T10:15:16.177Z,3.23
2022-11-05T10:21:32.347Z,3.65
2022-11-05T10:27:50.050Z,3.20
2022-11-05T10:33:53.445Z,2.95
2022-11-05T10:39:56.638Z,2.85
2022-11-05T10:45:58.092Z,2.93
2022-11-05T10:52:03.744Z,2.50
2022-11-05T10:58:10.190Z,2.50
2022-11-05T11:04:22.129Z,2.10
2022-11-05T11:10:24.408Z,2.20
2022-11-05T11:16:27.481Z,1.97
2022-11-05T11:22:29.286Z,1.75
2022-11-05T11:28:39.595Z,1.80
2022-11-05T11:34:42.575Z,1.90
2022-11-05T11:40:44.436Z,1.70
2022-11-05T11:46:46.893Z,1.90
2022-11-05T11:52:48.339Z,2.10
2022-11-05T11:58:54.147Z,2.00
2022-11-05T12:05:23.007Z,1.60
2022-11-05T12:11:31.324Z,1.50
2022-11-05T12:17:41.962Z,1.37
2022-11-05T12:24:01.996Z,1.48
2022-11-05T12:30:08.032Z,1.47
2022-11-05T12:36:14.491Z,1.38
2022-11-05T12:42:37.067Z,1.35
2022-11-05T12:48:57.242Z,1.10
2022-11-05T12:55:08.876Z,1.40
2022-11-05T13:01:16.952Z,1.10
2022-11-05T13:07:29.980Z,1.50
2022-11-05T13:13:34.530Z,1.15
2022-11-05T13:19:38.317Z,1.30
2022-11-05T13:25:45.037Z,1.02
2022-11-05T13:31:53.298Z,1.17
2022-11-05T13:38:15.987Z,1.10
2022-11-05T13:44:53.369Z,1.20
2022-11-05T13:50:54.802Z,1.40
2022-11-05T13:57:22.122Z,1.10
2022-11-05T14:03:23.597Z,1.30
2022-11-05T14:09:27.366Z,0.98
2022-11-05T14:15:29.785Z,1.27
2022-11-05T14:21:46.248Z,1.43
2022-11-05T14:27:49.183Z,1.75
2022-11-05T14:34:01.161Z,1.57
2022-11-05T14:40:21.098Z,1.40
2022-11-05T14:46:22.601Z,1.55
2022-11-05T14:52:24.076Z,1.50
2022-11-05T14:58:31.202Z,1.45
2022-11-05T15:04:45.289Z,1.63
2022-11-05T15:10:47.958Z,1.90
2022-11-05T15:16:52.605Z,1.60
2022-11-05T15:22:58.677Z,2.10
2022-11-05T15:29:01.393Z,2.20
2022-11-05T15:35:03.001Z,2.17
2022-11-05T15:41:05.986Z,2.30
2022-11-05T15:47:15.448Z,2.55
2022-11-05T15:54:02.249Z,2.90
2022-11-05T15:59:58.895Z,3.00
2022-11-05T16:06:00.827Z,3.30
2022-11-05T16:12:14.237Z,2.72
2022-11-05T16:18:22.198Z,3.08
2022-11-05T16:24:29.044Z,4.50
2022-11-05T16:30:30.919Z,4.97
2022-11-05T16:36:32.670Z,5.80
2022-11-05T16:42:34.152Z,4.65
2022-11-05T16:48:35.669Z,5.85
2022-11-05T16:54:37.322Z,6.10
2022-11-05T17:00:39.177Z,6.35
2022-11-05T17:06:40.850Z,10.70
2022-11-05T17:12:42.769Z,8.68
2022-11-05T17:18:44.556Z,7.63
2022-11-05T17:24:46.855Z,9.57
2022-11-05T17:30:54.478Z,8.27
2022-11-05T17:36:56.007Z,9.43
2022-11-05T17:42:57.610Z,11.52
2022-11-05T17:48:59.240Z,10.85
2022-11-05T17:55:00.929Z,11.40
2022-11-05T18:01:02.580Z,12.68
2022-11-05T18:07:04.320Z,12.80
2022-11-05T18:13:06.342Z,12.75
2022-11-05T18:19:07.816Z,11.18
2022-11-05T18:25:09.930Z,10.37
2022-11-05T18:31:18.337Z,9.95
2022-11-05T18:37:20.135Z,9.50
2022-11-05T18:43:21.792Z,10.00
2022-11-05T18:49:23.346Z,9.63
2022-11-05T18:55:24.903Z,9.53
2022-11-05T19:01:27.534Z,12.02
2022-11-05T19:07:29.260Z,11.23
2022-11-05T19:13:30.810Z,9.15
2022-11-05T19:19:32.295Z,7.95
2022-11-05T19:25:34.069Z,6.57
2022-11-05T19:31:35.588Z,6.50
2022-11-05T19:37:37.055Z,6.80
2022-11-05T19:43:38.987Z,5.75
2022-11-05T19:49:40.573Z,6.38
2022-11-05T19:55:44.916Z,6.97
2022-11-05T20:01:46.613Z,8.05
2022-11-05T20:07:52.843Z,7.83
2022-11-05T20:13:54.780Z,7.57
2022-11-05T20:19:56.257Z,8.50
2022-11-05T20:25:58.593Z,7.83
2022-11-05T20:32:01.885Z,8.10
2022-11-05T20:38:03.378Z,8.57
2022-11-05T20:44:05.062Z,7.50
2022-11-05T20:50:07.077Z,8.13
2022-11-05T20:56:09.324Z,7.13
2022-11-05T21:02:11.306Z,6.97
2022-11-05T21:08:13.523Z,7.37
2022-11-05T21:14:15.388Z,7.55
2022-11-05T21:20:17.141Z,7.70
2022-11-05T21:26:18.726Z,7.20
2022-11-05T21:32:20.310Z,7.18
2022-11-05T21:38:21.873Z,7.40
2022-11-05T21:44:23.508Z,6.97
2022-11-05T21:50:45.139Z,6.68
2022-11-05T21:57:10.942Z,7.10
2022-11-05T22:03:12.670Z,6.40
2022-11-05T22:09:14.130Z,6.23
2022-11-05T22:15:15.702Z,6.25
2022-11-05T22:21:20.169Z,6.13
2022-11-05T22:27:22.291Z,6.23
2022-11-05T22:33:23.750Z,5.90
2022-11-05T22:39:25.502Z,5.57
2022-11-05T22:45:26.978Z,5.35
2022-11-05T22:51:29.993Z,5.43
2022-11-05T22:57:31.545Z,5.47
2022-11-05T23:03:33.178Z,5.45
2022-11-05T23:09:53.432Z,5.53
2022-11-05T23:16:13.757Z,5.38
2022-11-05T23:22:38.194Z,5.65
2022-11-05T23:28:39.641Z,5.70
2022-11-05T23:34:41.102Z,5.82
2022-11-05T23:41:02.541Z,5.60
2022-11-05T23:47:22.882Z,5.00
2022-11-05T23:53:24.335Z,5.80
2022-11-05T23:59:25.789Z,5.03
